createdAt,value
2023-05-10T00:00:47.628Z,10.60
2023-05-10T00:03:14.663Z,9.30
2023-05-10T00:05:41.925Z,10.10
2023-05-10T00:08:08.785Z,11.90
2023-05-10T00:10:35.816Z,11.70
2023-05-10T00:13:02.705Z,11.10
2023-05-10T00:15:31.690Z,13.60
2023-05-10T00:17:58.835Z,12.80
2023-05-10T00:20:26.024Z,11.90
2023-05-10T00:22:53.308Z,17.00
2023-05-10T00:25:20.105Z,17.10
2023-05-10T00:27:47.192Z,20.90
2023-05-10T00:30:14.454Z,22.70
2023-05-10T00:32:41.705Z,23.10
2023-05-10T00:35:09.156Z,25.20
2023-05-10T00:37:36.003Z,26.60
2023-05-10T00:40:03.043Z,27.40
2023-05-10T00:42:30.125Z,21.20
2023-05-10T00:44:57.508Z,22.00
2023-05-10T00:47:24.916Z,21.50
2023-05-10T00:49:52.090Z,23.40
2023-05-10T00:52:19.101Z,22.70
2023-05-10T00:54:46.152Z,23.10
2023-05-10T00:57:13.019Z,19.50
2023-05-10T00:59:40.035Z,17.80
2023-05-10T01:02:07.739Z,16.90
2023-05-10T01:04:36.638Z,17.00
2023-05-10T01:07:03.844Z,12.80
2023-05-10T01:09:30.789Z,16.00
2023-05-10T01:11:57.825Z,13.10
2023-05-10T01:14:26.421Z,14.40
2023-05-10T01:16:54.509Z,16.60
2023-05-10T01:19:24.961Z,14.50
2023-05-10T01:22:03.742Z,14.60
2023-05-10T01:24:40.818Z,14.30
2023-05-10T01:27:27.487Z,15.10
2023-05-10T01:32:52.739Z,9.90
2023-05-10T01:35:46.223Z,10.40
2023-05-10T01:38:34.328Z,9.20
2023-05-10T01:41:10.499Z,10.80
2023-05-10T01:43:51.317Z,11.00
2023-05-10T01:46:21.945Z,12.00
2023-05-10T01:48:49.723Z,11.10
2023-05-10T01:51:18.461Z,8.90
2023-05-10T01:53:47.493Z,12.90
2023-05-10T01:56:15.306Z,13.00
2023-05-10T01:58:46.787Z,11.30
2023-05-10T02:01:14.892Z,10.60
2023-05-10T02:03:44.062Z,8.60
2023-05-10T02:06:12.018Z,12.90
2023-05-10T02:08:39.838Z,10.70
2023-05-10T02:11:07.141Z,8.80
2023-05-10T02:13:35.616Z,9.10
2023-05-10T02:16:03.025Z,8.60
2023-05-10T02:18:31.321Z,8.40
2023-05-10T02:20:59.218Z,9.20
2023-05-10T02:23:26.841Z,10.20
2023-05-10T02:25:55.067Z,9.30
2023-05-10T02:28:23.334Z,11.40
2023-05-10T02:30:50.179Z,9.40
2023-05-10T02:33:18.272Z,9.50
2023-05-10T02:35:46.951Z,10.20
2023-05-10T02:38:14.694Z,8.80
2023-05-10T02:40:42.561Z,11.40
2023-05-10T02:43:12.441Z,10.10
2023-05-10T02:45:40.110Z,8.40
2023-05-10T02:48:07.833Z,12.30
2023-05-10T02:50:35.255Z,10.30
2023-05-10T02:53:04.376Z,11.10
2023-05-10T02:55:34.191Z,8.70
2023-05-10T02:58:02.118Z,9.20
2023-05-10T03:00:29.227Z,10.70
2023-05-10T03:02:56.276Z,9.90
2023-05-10T03:05:24.493Z,9.20
2023-05-10T03:07:52.786Z,9.80
2023-05-10T03:10:20.032Z,11.30
2023-05-10T03:12:57.178Z,8.80
2023-05-10T03:15:42.529Z,10.00
2023-05-10T03:18:12.301Z,7.50
2023-05-10T03:20:53.807Z,9.90
2023-05-10T03:23:28.913Z,11.00
2023-05-10T03:25:56.295Z,10.60
2023-05-10T03:28:26.297Z,10.30
2023-05-10T03:30:53.889Z,10.20
2023-05-10T03:33:21.390Z,9.60
2023-05-10T03:35:48.479Z,10.20
2023-05-10T03:38:16.123Z,10.60
2023-05-10T03:40:42.985Z,9.70
2023-05-10T03:43:10.026Z,7.80
2023-05-10T03:45:37.718Z,9.90
2023-05-10T03:48:05.750Z,11.30
2023-05-10T03:50:32.794Z,11.30
2023-05-10T03:52:59.849Z,10.70
2023-05-10T03:55:28.118Z,10.80
2023-05-10T03:57:55.334Z,9.50
2023-05-10T04:00:22.616Z,8.90
2023-05-10T04:02:51.017Z,10.70
2023-05-10T04:05:20.009Z,11.60
2023-05-10T04:07:48.484Z,7.90
2023-05-10T04:10:16.021Z,10.80
2023-05-10T04:12:43.419Z,10.10
2023-05-10T04:15:10.587Z,10.90
2023-05-10T04:17:38.731Z,11.10
2023-05-10T04:20:06.099Z,7.40
2023-05-10T04:22:33.344Z,10.30
2023-05-10T04:25:00.264Z,7.00
2023-05-10T04:27:27.687Z,9.90
2023-05-10T04:29:54.560Z,10.60
2023-05-10T04:32:21.655Z,10.00
2023-05-10T04:34:48.656Z,7.90
2023-05-10T04:37:16.126Z,13.10
2023-05-10T04:39:42.952Z,10.60
2023-05-10T04:42:09.998Z,8.40
2023-05-10T04:44:37.411Z,8.90
2023-05-10T04:47:04.405Z,13.30
2023-05-10T04:49:31.354Z,18.00
2023-05-10T04:51:58.391Z,18.80
2023-05-10T04:54:25.441Z,13.30
2023-05-10T04:56:52.496Z,11.10
2023-05-10T04:59:19.528Z,10.00
2023-05-10T05:01:46.623Z,9.90
2023-05-10T05:04:13.407Z,9.60
2023-05-10T05:06:40.244Z,8.20
2023-05-10T05:09:07.053Z,8.20
2023-05-10T05:11:33.836Z,8.20
2023-05-10T05:14:00.794Z,9.60
2023-05-10T05:16:28.057Z,9.10
2023-05-10T05:18:55.467Z,8.40
2023-05-10T05:21:22.745Z,7.90
2023-05-10T05:23:49.809Z,6.70
2023-05-10T05:26:17.231Z,9.30
2023-05-10T05:28:44.303Z,8.40
2023-05-10T05:31:11.474Z,10.60
2023-05-10T05:33:39.021Z,9.70
2023-05-10T05:36:06.733Z,8.40
2023-05-10T05:38:33.848Z,7.60
2023-05-10T05:41:00.773Z,9.10
2023-05-10T05:43:27.617Z,9.00
2023-05-10T05:45:55.174Z,8.90
2023-05-10T05:48:22.339Z,8.00
2023-05-10T05:50:49.363Z,9.30
2023-05-10T05:53:16.871Z,8.60
2023-05-10T05:56:04.785Z,7.10
2023-05-10T05:58:31.803Z,10.10
2023-05-10T06:00:58.863Z,8.40
2023-05-10T06:03:26.215Z,8.90
2023-05-10T06:05:53.317Z,9.50
2023-05-10T06:08:20.156Z,8.20
2023-05-10T06:10:47.034Z,7.80
2023-05-10T06:13:13.905Z,9.60
2023-05-10T06:15:41.343Z,8.00
2023-05-10T06:18:08.217Z,10.40
2023-05-10T06:20:35.233Z,8.70
2023-05-10T06:23:02.282Z,7.10
2023-05-10T06:25:29.327Z,10.80
2023-05-10T06:27:59.025Z,7.60
2023-05-10T06:30:30.209Z,7.80
2023-05-10T06:32:57.620Z,9.60
2023-05-10T06:35:25.305Z,7.50
2023-05-10T06:37:52.960Z,9.20
2023-05-10T06:40:20.208Z,7.20
2023-05-10T06:42:47.851Z,8.20
2023-05-10T06:45:16.172Z,9.10
2023-05-10T06:47:43.913Z,7.20
2023-05-10T06:50:11.272Z,7.60
2023-05-10T06:52:38.531Z,8.70
2023-05-10T06:55:06.199Z,7.10
2023-05-10T06:57:33.371Z,7.70
2023-05-10T07:00:00.965Z,8.10
2023-05-10T07:02:28.606Z,8.20
2023-05-10T07:04:56.057Z,8.10
2023-05-10T07:07:23.054Z,9.10
2023-05-10T07:09:51.109Z,8.80
2023-05-10T07:12:18.040Z,7.80
2023-05-10T07:14:45.020Z,7.90
2023-05-10T07:17:11.866Z,6.20
2023-05-10T07:19:38.718Z,8.20
2023-05-10T07:22:05.562Z,7.10
2023-05-10T07:24:33.149Z,7.20
2023-05-10T07:27:00.035Z,9.00
2023-05-10T07:29:27.265Z,7.90
2023-05-10T07:31:55.403Z,6.60
2023-05-10T07:34:24.198Z,7.40
2023-05-10T07:36:51.043Z,9.80
2023-05-10T07:39:26.451Z,7.10
2023-05-10T07:41:54.048Z,7.10
2023-05-10T07:44:21.665Z,7.20
2023-05-10T07:46:49.125Z,9.10
2023-05-10T07:49:16.243Z,6.70
2023-05-10T07:51:43.887Z,7.90
2023-05-10T07:54:10.887Z,7.30
2023-05-10T07:56:37.740Z,9.10
2023-05-10T07:59:06.213Z,7.10
2023-05-10T08:01:33.859Z,9.60
2023-05-10T08:04:01.225Z,13.20
2023-05-10T08:06:29.290Z,7.80
2023-05-10T08:08:57.067Z,6.30
2023-05-10T08:11:24.024Z,7.70
2023-05-10T08:13:51.894Z,7.10
2023-05-10T08:16:19.428Z,9.80
2023-05-10T08:18:48.269Z,9.50
2023-05-10T08:21:15.452Z,9.70
2023-05-10T08:23:42.438Z,7.80
2023-05-10T08:26:09.277Z,7.30
2023-05-10T08:28:36.293Z,6.20
2023-05-10T08:31:08.783Z,6.60
2023-05-10T08:33:37.022Z,8.90
2023-05-10T08:36:03.884Z,7.00
2023-05-10T08:38:31.029Z,7.30
2023-05-10T08:40:58.288Z,7.20
2023-05-10T08:43:27.596Z,9.30
2023-05-10T08:45:55.454Z,6.90
2023-05-10T08:48:24.082Z,8.10
2023-05-10T08:50:53.387Z,7.60
2023-05-10T08:53:20.490Z,6.20
2023-05-10T08:55:47.459Z,6.70
2023-05-10T08:58:14.795Z,9.60
2023-05-10T09:00:41.869Z,8.00
2023-05-10T09:03:09.120Z,6.90
2023-05-10T09:05:38.103Z,6.30
2023-05-10T09:08:05.556Z,6.70
2023-05-10T09:10:33.106Z,7.10
2023-05-10T09:13:00.000Z,9.20
2023-05-10T09:15:27.214Z,5.50
2023-05-10T09:17:55.921Z,6.10
2023-05-10T09:20:23.751Z,6.70
2023-05-10T09:22:50.782Z,6.30
2023-05-10T09:25:18.479Z,7.90
2023-05-10T09:27:46.534Z,8.90
2023-05-10T09:30:40.625Z,6.70
2023-05-10T09:33:07.805Z,6.60
2023-05-10T09:35:35.051Z,6.40
2023-05-10T09:38:04.206Z,7.00
2023-05-10T09:40:32.305Z,6.60
2023-05-10T09:43:03.412Z,8.40
2023-05-10T09:45:31.508Z,7.00
2023-05-10T09:47:59.840Z,7.20
2023-05-10T09:50:27.125Z,8.40
2023-05-10T09:52:59.607Z,5.50
2023-05-10T09:55:27.418Z,6.30
2023-05-10T09:58:02.098Z,6.50
2023-05-10T10:00:29.293Z,6.30
2023-05-10T10:02:57.645Z,5.80
2023-05-10T10:05:34.765Z,5.90
2023-05-10T10:08:04.614Z,5.50
2023-05-10T10:10:32.835Z,6.20
2023-05-10T10:13:00.973Z,7.50
2023-05-10T10:15:27.902Z,5.80
2023-05-10T10:17:55.351Z,6.40
2023-05-10T10:20:23.729Z,6.90
2023-05-10T10:22:51.199Z,6.90
2023-05-10T10:25:19.690Z,5.80
2023-05-10T10:27:53.177Z,6.50
2023-05-10T10:30:23.176Z,5.90
2023-05-10T10:32:59.419Z,5.70
2023-05-10T10:35:26.330Z,4.90
2023-05-10T10:37:53.123Z,6.90
2023-05-10T10:40:35.587Z,6.10
2023-05-10T10:43:25.722Z,6.30
2023-05-10T10:46:15.226Z,5.90
2023-05-10T10:48:43.115Z,5.50
2023-05-10T10:51:11.579Z,5.80
2023-05-10T10:53:40.973Z,5.80
2023-05-10T10:56:11.918Z,6.50
2023-05-10T10:58:39.332Z,6.40
2023-05-10T11:01:13.614Z,6.40
2023-05-10T11:03:40.685Z,7.80
2023-05-10T11:06:08.693Z,5.80
2023-05-10T11:08:43.234Z,4.90
2023-05-10T11:11:10.359Z,7.10
2023-05-10T11:13:43.761Z,5.90
2023-05-10T11:16:11.906Z,8.00
2023-05-10T11:18:39.061Z,6.20
2023-05-10T11:21:10.646Z,6.10
2023-05-10T11:23:40.550Z,7.80
2023-05-10T11:26:10.870Z,5.70
2023-05-10T11:28:50.131Z,6.30
2023-05-10T11:31:17.656Z,5.60
2023-05-10T11:33:51.785Z,5.70
2023-05-10T11:36:19.762Z,6.80
2023-05-10T11:38:47.374Z,6.30
2023-05-10T11:41:14.780Z,6.70
2023-05-10T11:43:42.087Z,6.40
2023-05-10T11:46:13.193Z,7.00
2023-05-10T11:48:41.097Z,5.30
2023-05-10T11:51:11.807Z,5.60
2023-05-10T11:53:39.292Z,5.80
2023-05-10T11:56:10.337Z,5.80
2023-05-10T11:58:38.268Z,7.50
2023-05-10T12:01:06.604Z,6.90
2023-05-10T12:03:33.958Z,5.20
2023-05-10T12:06:02.537Z,4.80
2023-05-10T12:08:30.438Z,5.20
2023-05-10T12:11:07.863Z,6.80
2023-05-10T12:13:39.247Z,5.80
2023-05-10T12:16:17.171Z,4.80
2023-05-10T12:18:44.182Z,7.90
2023-05-10T12:21:12.838Z,5.30
2023-05-10T12:23:40.610Z,5.60
2023-05-10T12:26:08.141Z,5.40
2023-05-10T12:28:35.247Z,6.70
2023-05-10T12:31:02.712Z,5.60
2023-05-10T12:33:36.512Z,7.90
2023-05-10T12:36:03.717Z,5.50
2023-05-10T12:38:35.116Z,5.00
2023-05-10T12:41:06.317Z,5.20
2023-05-10T12:43:33.510Z,7.40
2023-05-10T12:46:05.712Z,6.30
2023-05-10T12:48:32.928Z,5.30
2023-05-10T12:50:59.771Z,5.50
2023-05-10T12:53:26.874Z,6.60
2023-05-10T12:55:54.479Z,5.50
2023-05-10T13:00:54.951Z,6.50
2023-05-10T13:03:21.983Z,7.20
2023-05-10T13:05:48.944Z,6.30
2023-05-10T13:08:15.856Z,6.10
2023-05-10T13:10:43.109Z,8.90
2023-05-10T13:13:10.972Z,15.50
2023-05-10T13:15:37.851Z,74.00
2023-05-10T13:18:04.825Z,25.70
2023-05-10T13:20:31.914Z,13.10
2023-05-10T13:22:58.753Z,7.60
2023-05-10T13:25:25.842Z,8.90
2023-05-10T13:27:52.846Z,9.30
2023-05-10T13:30:19.688Z,6.70
2023-05-10T13:32:46.975Z,10.50
2023-05-10T13:35:13.807Z,6.10
2023-05-10T13:37:41.037Z,6.80
2023-05-10T13:40:08.539Z,9.90
2023-05-10T13:42:35.757Z,9.30
2023-05-10T13:45:05.703Z,10.10
2023-05-10T13:47:32.543Z,8.50
2023-05-10T13:49:59.563Z,8.30
2023-05-10T13:52:27.425Z,6.90
2023-05-10T13:54:56.520Z,6.30
2023-05-10T13:57:24.161Z,6.20
2023-05-10T13:59:51.647Z,6.80
2023-05-10T14:02:18.473Z,6.50
2023-05-10T14:04:45.536Z,6.30
2023-05-10T14:07:12.569Z,7.80
2023-05-10T14:09:39.426Z,7.40
2023-05-10T14:12:06.465Z,7.10
2023-05-10T14:14:33.272Z,7.40
2023-05-10T14:17:00.562Z,6.80
2023-05-10T14:19:28.431Z,6.70
2023-05-10T14:21:55.480Z,6.90
2023-05-10T14:24:22.526Z,6.00
2023-05-10T14:26:49.354Z,6.00
2023-05-10T14:29:16.201Z,11.50
2023-05-10T14:31:43.080Z,12.20
2023-05-10T14:34:09.885Z,9.10
2023-05-10T14:36:36.726Z,16.50
2023-05-10T14:39:04.191Z,33.50
2023-05-10T14:41:31.450Z,26.20
2023-05-10T14:43:58.686Z,41.40
2023-05-10T14:46:25.577Z,38.40
2023-05-10T14:48:52.779Z,14.00
2023-05-10T14:51:22.898Z,8.20
2023-05-10T14:53:53.019Z,8.40
2023-05-10T14:56:19.862Z,6.60
2023-05-10T14:58:47.724Z,6.30
2023-05-10T15:01:14.576Z,6.50
2023-05-10T15:03:42.190Z,5.70
2023-05-10T15:06:10.097Z,6.90
2023-05-10T15:08:37.138Z,12.40
2023-05-10T15:11:04.195Z,7.70
2023-05-10T15:13:31.240Z,6.20
2023-05-10T15:15:58.160Z,6.90
2023-05-10T15:18:25.113Z,12.50
2023-05-10T15:20:52.006Z,7.70
2023-05-10T15:23:18.819Z,7.00
2023-05-10T15:25:45.860Z,5.60
2023-05-10T15:28:12.697Z,7.70
2023-05-10T15:30:39.958Z,6.40
2023-05-10T15:33:06.738Z,6.40
2023-05-10T15:35:34.677Z,7.60
2023-05-10T15:38:01.934Z,6.60
2023-05-10T15:40:28.785Z,8.10
2023-05-10T15:42:56.007Z,10.20
2023-05-10T15:45:22.865Z,7.10
2023-05-10T15:47:49.934Z,6.70
2023-05-10T15:50:17.353Z,8.00
2023-05-10T15:52:44.532Z,7.40
2023-05-10T15:55:15.056Z,6.60
2023-05-10T15:57:44.054Z,6.40
2023-05-10T16:00:11.896Z,8.70
2023-05-10T16:02:42.030Z,9.70
2023-05-10T16:05:10.082Z,8.80
2023-05-10T16:07:36.998Z,7.70
2023-05-10T16:10:04.355Z,7.80
2023-05-10T16:12:31.591Z,6.40
2023-05-10T16:14:58.497Z,7.30
2023-05-10T16:17:25.688Z,6.80
2023-05-10T16:19:52.822Z,7.40
2023-05-10T16:22:19.825Z,7.50
2023-05-10T16:24:46.777Z,8.10
2023-05-10T16:27:13.924Z,8.80
2023-05-10T16:29:40.850Z,9.80
2023-05-10T16:32:07.818Z,8.00
2023-05-10T16:34:34.866Z,8.60
2023-05-10T16:37:01.705Z,8.20
2023-05-10T16:39:28.616Z,9.00
2023-05-10T16:41:55.443Z,8.30
2023-05-10T16:44:25.191Z,8.80
2023-05-10T16:46:53.327Z,18.60
2023-05-10T16:49:20.216Z,12.00
2023-05-10T16:51:46.970Z,14.10
2023-05-10T16:54:13.854Z,12.80
2023-05-10T16:56:41.363Z,8.60
2023-05-10T16:59:08.819Z,9.00
2023-05-10T17:01:35.747Z,7.50
2023-05-10T17:04:03.223Z,8.60
2023-05-10T17:06:30.323Z,7.40
2023-05-10T17:08:57.427Z,10.30
2023-05-10T17:11:24.665Z,8.50
2023-05-10T17:13:52.904Z,10.80
2023-05-10T17:16:21.039Z,9.60
2023-05-10T17:18:48.048Z,10.20
2023-05-10T17:21:15.046Z,9.30
2023-05-10T17:23:42.897Z,10.30
2023-05-10T17:26:09.775Z,11.20
2023-05-10T17:28:36.662Z,13.80
2023-05-10T17:31:03.507Z,10.90
2023-05-10T17:33:30.761Z,11.20
2023-05-10T17:35:58.427Z,12.40
2023-05-10T17:38:25.267Z,10.70
2023-05-10T17:40:52.312Z,14.50
2023-05-10T17:43:19.570Z,11.90
2023-05-10T17:45:48.401Z,15.60
2023-05-10T17:48:15.496Z,14.10
2023-05-10T17:50:43.582Z,12.70
2023-05-10T17:53:10.822Z,13.00
2023-05-10T17:55:40.537Z,12.00
2023-05-10T17:58:07.573Z,13.20
2023-05-10T18:00:34.594Z,13.90
2023-05-10T18:03:02.969Z,13.80
2023-05-10T18:05:35.012Z,14.70
2023-05-10T18:08:02.750Z,13.30
2023-05-10T18:10:29.786Z,13.20
2023-05-10T18:13:01.021Z,14.20
2023-05-10T18:15:27.962Z,15.20
2023-05-10T18:18:00.060Z,13.90
2023-05-10T18:20:27.790Z,13.50
2023-05-10T18:22:56.692Z,12.30
2023-05-10T18:25:24.550Z,11.80
2023-05-10T18:27:51.690Z,13.10
2023-05-10T18:30:19.056Z,13.70
2023-05-10T18:32:47.009Z,12.80
2023-05-10T18:35:14.998Z,17.30
2023-05-10T18:37:43.475Z,16.10
2023-05-10T18:40:14.774Z,22.30
2023-05-10T18:42:46.802Z,17.10
2023-05-10T18:45:16.234Z,19.90
2023-05-10T18:47:43.311Z,15.60
2023-05-10T18:50:11.162Z,23.10
2023-05-10T18:52:38.238Z,17.70
2023-05-10T18:55:05.710Z,17.40
2023-05-10T18:57:32.961Z,18.10
2023-05-10T19:00:00.254Z,17.10
2023-05-10T19:02:27.305Z,17.40
2023-05-10T19:04:55.767Z,16.30
2023-05-10T19:07:23.822Z,17.10
2023-05-10T19:09:51.680Z,14.30
2023-05-10T19:12:22.012Z,18.70
2023-05-10T19:14:49.664Z,16.50
2023-05-10T19:17:20.395Z,17.40
2023-05-10T19:19:50.341Z,16.10
2023-05-10T19:22:28.309Z,19.30
2023-05-10T19:25:04.663Z,24.30
2023-05-10T19:27:33.870Z,24.10
2023-05-10T19:30:02.722Z,27.00
2023-05-10T19:32:30.159Z,23.30
2023-05-10T19:34:58.606Z,25.10
2023-05-10T19:37:27.559Z,22.50
2023-05-10T19:39:54.544Z,20.00
2023-05-10T19:42:22.003Z,24.20
2023-05-10T19:44:49.548Z,20.80
2023-05-10T19:47:16.867Z,21.60
2023-05-10T19:49:44.183Z,18.10
2023-05-10T19:52:12.477Z,20.50
2023-05-10T19:54:40.515Z,21.50
2023-05-10T19:57:08.278Z,18.80
2023-05-10T19:59:35.634Z,19.70
2023-05-10T20:02:02.941Z,20.80
2023-05-10T20:04:30.752Z,20.00
2023-05-10T20:06:58.208Z,23.80
2023-05-10T20:09:25.091Z,24.00
2023-05-10T20:11:52.102Z,23.80
2023-05-10T20:14:19.319Z,21.10
2023-05-10T20:16:46.626Z,18.60
2023-05-10T20:19:13.909Z,20.30
2023-05-10T20:21:40.917Z,23.90
2023-05-10T20:24:09.382Z,22.50
2023-05-10T20:26:36.378Z,25.00
2023-05-10T20:29:03.899Z,20.90
2023-05-10T20:31:30.774Z,20.80
2023-05-10T20:33:58.397Z,20.90
2023-05-10T20:36:26.040Z,21.10
2023-05-10T20:38:53.102Z,24.80
2023-05-10T20:41:20.298Z,30.10
2023-05-10T20:43:47.205Z,26.30
2023-05-10T20:46:14.094Z,21.70
2023-05-10T20:48:41.299Z,25.70
2023-05-10T20:51:08.338Z,20.40
2023-05-10T20:53:35.531Z,21.80
2023-05-10T20:56:02.606Z,23.20
2023-05-10T20:58:29.411Z,22.60
2023-05-10T21:00:56.319Z,25.50
2023-05-10T21:03:23.213Z,24.10
2023-05-10T21:05:50.059Z,19.50
2023-05-10T21:08:17.052Z,30.80
2023-05-10T21:10:43.902Z,23.40
2023-05-10T21:13:10.806Z,26.10
2023-05-10T21:15:37.788Z,24.80
2023-05-10T21:18:05.227Z,26.10
2023-05-10T21:20:32.197Z,21.20
2023-05-10T21:22:59.143Z,19.70
2023-05-10T21:25:26.159Z,20.70
2023-05-10T21:27:53.432Z,22.10
2023-05-10T21:30:20.288Z,20.80
2023-05-10T21:32:47.407Z,18.60
2023-05-10T21:35:14.283Z,19.70
2023-05-10T21:37:41.153Z,19.00
2023-05-10T21:40:08.267Z,17.00
2023-05-10T21:42:35.205Z,12.50
2023-05-10T21:45:05.037Z,14.60
2023-05-10T21:47:32.502Z,13.60
2023-05-10T21:50:00.372Z,15.10
2023-05-10T21:52:27.801Z,14.20
2023-05-10T21:54:54.600Z,12.40
2023-05-10T21:57:21.702Z,12.90
2023-05-10T21:59:48.591Z,11.90
2023-05-10T22:02:15.958Z,12.00
2023-05-10T22:04:42.961Z,11.10
2023-05-10T22:07:09.886Z,11.80
2023-05-10T22:09:36.684Z,11.20
2023-05-10T22:12:03.966Z,12.20
2023-05-10T22:14:31.023Z,9.40
2023-05-10T22:16:58.320Z,10.10
2023-05-10T22:19:25.379Z,10.90
2023-05-10T22:21:52.778Z,10.60
2023-05-10T22:24:19.619Z,13.50
2023-05-10T22:26:46.614Z,10.60
2023-05-10T22:29:13.460Z,9.70
2023-05-10T22:31:40.370Z,11.40
2023-05-10T22:34:07.166Z,12.00
2023-05-10T22:36:33.954Z,10.20
2023-05-10T22:39:00.877Z,11.20
2023-05-10T22:41:27.724Z,13.50
2023-05-10T22:43:54.769Z,9.70
2023-05-10T22:46:21.661Z,11.70
2023-05-10T22:48:48.669Z,10.10
2023-05-10T22:51:15.634Z,12.10
2023-05-10T22:53:42.422Z,11.40
2023-05-10T22:56:09.531Z,10.70
2023-05-10T22:58:36.374Z,9.90
2023-05-10T23:01:03.256Z,9.70
2023-05-10T23:03:30.063Z,11.30
2023-05-10T23:05:56.949Z,9.40
2023-05-10T23:08:23.821Z,11.20
2023-05-10T23:10:50.592Z,9.30
2023-05-10T23:13:17.490Z,12.30
2023-05-10T23:15:44.294Z,10.90
2023-05-10T23:18:11.193Z,11.50
2023-05-10T23:20:38.215Z,11.10
2023-05-10T23:23:05.098Z,9.70
2023-05-10T23:25:31.909Z,13.50
2023-05-10T23:27:59.002Z,13.90
2023-05-10T23:30:25.829Z,13.00
2023-05-10T23:32:52.726Z,11.50
2023-05-10T23:35:19.597Z,13.90
2023-05-10T23:37:46.467Z,10.90
2023-05-10T23:40:14.385Z,10.10
2023-05-10T23:42:41.205Z,10.30
2023-05-10T23:45:08.498Z,10.90
2023-05-10T23:47:35.337Z,11.00
2023-05-10T23:50:02.412Z,13.30
2023-05-10T23:52:29.214Z,13.90
2023-05-10T23:54:56.072Z,10.70
2023-05-10T23:57:23.122Z,11.30
2023-05-10T23:59:49.942Z,11.60
